Time;durP1;ratioP1;P1;durP2;ratioP2;P2;SDS_P1;SDS_P2;PMS_P1;PMS_P2;Temp;Humidity;BMP_temperature;BMP_pressure;BME280_temperature;BME280_humidity;BME280_pressure;Samples;Min_cycle;Max_cycle;Signal;HPM_P1;HPM_P2
2021/10/21 00:00:06;;;;;;;0.70;0.70;;;;;;;17.27;100.00;-21150.50;4977206;28;20435;-74
2021/10/21 00:02:37;;;;;;;0.70;0.70;;;;;;;17.16;100.00;-21147.50;4972484;28;20439;-75
2021/10/21 00:05:06;;;;;;;0.70;0.70;;;;;;;17.38;100.00;-21153.38;4975724;28;20562;-75
2021/10/21 00:07:33;;;;;;;0.70;0.60;;;;;;;17.50;100.00;-21156.69;4976877;28;20449;-74
2021/10/21 00:10:03;;;;;;;0.70;0.60;;;;;;;17.68;100.00;-21161.47;4975932;28;20433;-74
2021/10/21 00:12:32;;;;;;;0.70;0.60;;;;;;;17.80;100.00;-21164.78;4976516;28;20431;-73
2021/10/21 00:15:00;;;;;;;0.70;0.60;;;;;;;17.87;100.00;-21166.56;4977133;28;20419;-75
2021/10/21 00:17:28;;;;;;;0.70;0.60;;;;;;;17.98;100.00;-21169.44;4975872;28;20471;-73
2021/10/21 00:19:57;;;;;;;0.70;0.70;;;;;;;18.02;100.00;-21170.66;4976825;28;20967;-74
2021/10/21 00:22:24;;;;;;;0.70;0.70;;;;;;;17.96;100.00;-21168.88;4977209;28;20455;-73
2021/10/21 00:24:51;;;;;;;0.70;0.60;;;;;;;17.80;100.00;-21164.78;4975682;28;20566;-76
2021/10/21 00:27:20;;;;;;;0.70;0.70;;;;;;;17.25;100.00;-21149.97;4975513;28;20448;-77
2021/10/21 00:29:47;;;;;;;0.70;0.70;;;;;;;16.82;100.00;-21138.28;4972629;28;20474;-72
2021/10/21 00:32:17;;;;;;;1.10;0.90;;;;;;;16.49;100.00;-21129.50;4975945;28;20435;-74
2021/10/21 00:34:46;;;;;;;0.70;0.60;;;;;;;16.37;100.00;-21126.22;4958926;28;20547;-72
2021/10/21 00:37:22;;;;;;;0.70;0.70;;;;;;;16.21;100.00;-21121.97;4976841;28;21022;-74
2021/10/21 00:39:54;;;;;;;0.70;0.60;;;;;;;16.03;100.00;-21117.16;4976895;28;20416;-76
2021/10/21 00:42:27;;;;;;;0.70;0.60;;;;;;;15.94;100.00;-21114.81;4975831;28;20440;-76
2021/10/21 00:45:21;;;;;;;0.77;0.73;;;;;;;15.92;100.00;-21114.25;4968553;28;20800;-75
2021/10/21 00:47:57;;;;;;;0.70;0.60;;;;;;;15.92;100.00;-21114.25;4956506;29;20427;-75
2021/10/21 00:50:27;;;;;;;0.90;0.90;;;;;;;15.87;100.00;-21112.88;4956257;29;20417;-78
2021/10/21 00:53:00;;;;;;;0.70;0.60;;;;;;;15.79;100.00;-21110.56;4956253;29;20476;-75
2021/10/21 00:55:34;;;;;;;0.70;0.70;;;;;;;15.67;100.00;-21107.41;4955935;28;20439;-76
2021/10/21 00:58:13;;;;;;;0.70;0.70;;;;;;;15.57;100.00;-21104.78;4956483;29;20984;-79
2021/10/21 01:00:42;;;;;;;0.70;0.70;;;;;;;15.64;100.00;-21106.56;4957679;28;20517;-75
2021/10/21 01:03:13;;;;;;;0.70;0.60;;;;;;;15.65;100.00;-21106.84;4959204;28;20454;-78
2021/10/21 01:05:43;;;;;;;0.70;0.70;;;;;;;15.64;100.00;-21106.69;4957532;28;20467;-78
2021/10/21 01:08:19;;;;;;;0.70;0.60;;;;;;;15.67;100.00;-21107.53;4976297;28;20466;-72
2021/10/21 01:10:58;;;;;;;0.70;0.60;;;;;;;15.68;100.00;-21107.66;4976436;28;20913;-74
2021/10/21 01:13:34;;;;;;;0.70;0.70;;;;;;;15.60;100.00;-21105.59;4975022;28;20809;-76
2021/10/21 01:16:07;;;;;;;0.70;0.70;;;;;;;15.62;100.00;-21106.16;4975835;28;20442;-74
2021/10/21 01:18:44;;;;;;;0.70;0.60;;;;;;;15.52;100.00;-21103.25;4975477;28;20758;-72
2021/10/21 01:21:16;;;;;;;0.70;0.60;;;;;;;15.42;100.00;-21100.78;4974677;28;20449;-74
2021/10/21 01:23:46;;;;;;;0.70;0.70;;;;;;;15.28;100.00;-21096.81;4974768;28;20454;-72
2021/10/21 01:26:17;;;;;;;0.70;0.70;;;;;;;15.14;100.00;-21093.09;4974749;28;20536;-74
2021/10/21 01:28:54;;;;;;;0.80;0.73;;;;;;;15.15;100.00;-21093.38;4976166;28;20413;-74
2021/10/21 01:31:25;;;;;;;0.70;0.70;;;;;;;15.12;100.00;-21092.69;4967500;28;20763;-75
2021/10/21 01:33:56;;;;;;;0.70;0.63;;;;;;;15.06;100.00;-21090.88;4987618;28;20451;-75
2021/10/21 01:36:30;;;;;;;0.70;0.60;;;;;;;14.88;100.00;-21086.22;4987116;28;20444;-72
2021/10/21 01:39:02;;;;;;;0.70;0.60;;;;;;;14.96;100.00;-21088.41;4975484;28;20526;-73
2021/10/21 01:41:35;;;;;;;0.80;0.80;;;;;;;14.88;100.00;-21086.06;4975579;28;20411;-71
2021/10/21 01:44:14;;;;;;;0.70;0.60;;;;;;;14.86;100.00;-21085.66;4975757;28;20411;-73
2021/10/21 01:46:44;;;;;;;0.80;0.70;;;;;;;14.94;100.00;-21087.72;4974165;28;20419;-72
2021/10/21 01:49:11;;;;;;;0.70;0.60;;;;;;;14.94;100.00;-21087.84;4974316;28;20437;-72
2021/10/21 01:51:39;;;;;;;0.70;0.60;;;;;;;15.01;100.00;-21089.50;4974507;28;20493;-73
2021/10/21 01:54:06;;;;;;;0.70;0.70;;;;;;;15.03;100.00;-21090.06;4974460;28;20543;-72
2021/10/21 01:56:33;;;;;;;0.70;0.70;;;;;;;14.94;100.00;-21087.84;4975028;28;21007;-76
2021/10/21 01:59:00;;;;;;;0.70;0.70;;;;;;;14.81;100.00;-21084.16;4975411;28;20439;-73
2021/10/21 02:01:27;;;;;;;0.70;0.70;;;;;;;14.66;100.00;-21080.16;4973422;28;20461;-76
2021/10/21 02:03:54;;;;;;;0.73;0.73;;;;;;;14.67;100.00;-21080.44;4958438;28;21014;-75
2021/10/21 02:06:23;;;;;;;0.70;0.70;;;;;;;14.64;100.00;-21079.59;4972541;28;20473;-74
2021/10/21 02:08:51;;;;;;;0.70;0.60;;;;;;;14.56;100.00;-21077.53;4974631;28;20461;-72
2021/10/21 02:11:18;;;;;;;0.70;0.60;;;;;;;14.55;100.00;-21077.13;4974082;28;20445;-71
2021/10/21 02:13:45;;;;;;;0.70;0.70;;;;;;;14.65;100.00;-21079.88;4975240;28;20765;-75
2021/10/21 02:16:12;;;;;;;0.70;0.60;;;;;;;14.52;100.00;-21076.31;4974381;28;20485;-75
2021/10/21 02:18:39;;;;;;;0.70;0.70;;;;;;;14.44;100.00;-21074.38;4975053;28;20437;-71
2021/10/21 02:21:06;;;;;;;0.70;0.70;;;;;;;14.47;100.00;-21075.19;4973828;28;20799;-71
2021/10/21 02:23:33;;;;;;;0.70;0.70;;;;;;;14.44;100.00;-21074.38;4973892;28;20949;-77
2021/10/21 02:26:02;;;;;;;0.70;0.60;;;;;;;14.27;100.00;-21069.69;4957936;28;20507;-71
2021/10/21 02:28:29;;;;;;;0.70;0.70;;;;;;;14.29;100.00;-21070.25;4975156;28;20524;-77
2021/10/21 02:30:58;;;;;;;0.70;0.60;;;;;;;14.19;100.00;-21067.50;4971760;28;20830;-75
2021/10/21 02:33:25;;;;;;;0.80;0.80;;;;;;;14.06;100.00;-21063.91;4957820;28;20456;-77
2021/10/21 02:35:52;;;;;;;0.70;0.60;;;;;;;14.08;100.00;-21064.47;4989011;28;20446;-76
2021/10/21 02:38:20;;;;;;;0.70;0.60;;;;;;;14.16;100.00;-21066.66;4974437;28;20507;-76
2021/10/21 02:40:47;;;;;;;0.70;0.60;;;;;;;14.25;100.00;-21069.28;4974921;28;20413;-74
2021/10/21 02:43:15;;;;;;;0.70;0.70;;;;;;;14.22;100.00;-21068.44;4973838;28;20873;-74
2021/10/21 02:45:45;;;;;;;0.73;0.70;;;;;;;14.25;100.00;-21069.16;4974248;28;20557;-77
2021/10/21 02:48:12;;;;;;;0.70;0.60;;;;;;;14.36;100.00;-21072.03;4973388;28;20450;-76
2021/10/21 02:50:39;;;;;;;0.73;0.70;;;;;;;14.29;100.00;-21070.09;4973213;28;20452;-75
2021/10/21 02:53:07;;;;;;;0.80;0.70;;;;;;;14.30;100.00;-21070.53;4973245;28;20867;-75
2021/10/21 02:55:33;;;;;;;0.70;0.60;;;;;;;14.11;100.00;-21065.28;4974142;28;20414;-75
2021/10/21 02:58:00;;;;;;;0.70;0.60;;;;;;;14.07;100.00;-21064.31;4973405;28;20526;-76
2021/10/21 03:00:29;;;;;;;0.80;0.80;;;;;;;14.17;100.00;-21066.94;4971975;28;20446;-76
2021/10/21 03:02:56;;;;;;;0.70;0.70;;;;;;;14.22;100.00;-21068.44;4968841;28;20996;-77
2021/10/21 03:05:24;;;;;;;0.70;0.70;;;;;;;14.29;100.00;-21070.09;4973550;28;20470;-76
2021/10/21 03:07:51;;;;;;;0.70;0.60;;;;;;;14.23;100.00;-21068.59;4973148;28;20518;-76
2021/10/21 03:10:18;;;;;;;0.70;0.60;;;;;;;14.23;100.00;-21068.59;4973359;28;20940;-76
2021/10/21 03:12:45;;;;;;;0.70;0.70;;;;;;;14.20;100.00;-21067.75;4974076;28;20512;-78
2021/10/21 03:15:25;;;;;;;0.70;0.70;;;;;;;14.19;100.00;-21067.50;4974252;28;20450;-76
2021/10/21 03:17:55;;;;;;;0.70;0.60;;;;;;;14.32;100.00;-21071.06;4974096;28;20917;-76
2021/10/21 03:20:22;;;;;;;0.73;0.63;;;;;;;14.36;100.00;-21072.03;4989102;28;20910;-75
2021/10/21 03:22:49;;;;;;;0.70;0.60;;;;;;;14.37;100.00;-21072.44;4972708;28;20886;-74
2021/10/21 03:25:17;;;;;;;0.70;0.60;;;;;;;14.34;100.00;-21071.63;4974132;28;20467;-76
2021/10/21 03:27:44;;;;;;;0.70;0.60;;;;;;;14.50;100.00;-21076.03;4974335;28;20424;-75
2021/10/21 03:30:11;;;;;;;0.70;0.63;;;;;;;14.42;100.00;-21073.81;4973712;28;20434;-77
2021/10/21 03:32:39;;;;;;;0.70;0.70;;;;;;;14.43;100.00;-21074.09;4972678;28;20451;-76
2021/10/21 03:35:08;;;;;;;0.70;0.60;;;;;;;14.41;100.00;-21073.41;4974250;28;20514;-74
2021/10/21 03:37:35;;;;;;;0.70;0.60;;;;;;;14.44;100.00;-21074.38;4957053;28;20515;-77
2021/10/21 03:40:04;;;;;;;0.80;0.70;;;;;;;14.52;100.00;-21076.44;4972712;28;20470;-76
2021/10/21 03:42:32;;;;;;;0.70;0.70;;;;;;;14.44;100.00;-21074.22;4956807;28;20444;-74
2021/10/21 03:44:58;;;;;;;0.70;0.60;;;;;;;14.44;100.00;-21074.38;4972662;28;20411;-74
2021/10/21 03:47:26;;;;;;;0.80;0.70;;;;;;;14.40;100.00;-21073.28;4973744;28;20436;-76
2021/10/21 03:49:53;;;;;;;0.80;0.70;;;;;;;14.24;100.00;-21068.88;4972908;28;20468;-77
2021/10/21 03:52:22;;;;;;;0.70;0.60;;;;;;;14.18;100.00;-21067.22;4973433;28;20445;-72
2021/10/21 03:54:49;;;;;;;0.70;0.70;;;;;;;14.11;100.00;-21065.28;4969622;28;20447;-75
2021/10/21 03:57:17;;;;;;;0.70;0.70;;;;;;;14.20;100.00;-21067.75;4969758;28;20872;-76
2021/10/21 03:59:44;;;;;;;0.70;0.60;;;;;;;14.15;100.00;-21066.38;4954382;28;20492;-76
2021/10/21 04:02:19;;;;;;;0.70;0.60;;;;;;;14.18;100.00;-21067.22;4967287;28;20455;-77
2021/10/21 04:04:46;;;;;;;0.70;0.60;;;;;;;14.18;100.00;-21067.34;4973020;28;20455;-74
2021/10/21 04:07:13;;;;;;;0.80;0.70;;;;;;;14.08;100.00;-21064.59;4973952;28;21024;-80
2021/10/21 04:09:42;;;;;;;0.80;0.70;;;;;;;14.06;100.00;-21064.03;4974161;28;20430;-79
2021/10/21 04:12:09;;;;;;;0.70;0.60;;;;;;;14.00;100.00;-21062.53;4973809;28;20469;-78
2021/10/21 04:14:36;;;;;;;0.70;0.70;;;;;;;14.02;100.00;-21063.06;4973935;28;20456;-76
2021/10/21 04:17:03;;;;;;;0.70;0.60;;;;;;;13.99;100.00;-21062.25;4974561;28;20412;-76
2021/10/21 04:19:29;;;;;;;0.70;0.60;;;;;;;13.91;100.00;-21060.03;4975928;28;20490;-74
2021/10/21 04:21:56;;;;;;;0.70;0.60;;;;;;;13.96;100.00;-21061.28;4975558;28;20564;-77
2021/10/21 04:24:23;;;;;;;0.70;0.60;;;;;;;13.91;100.00;-21060.03;4976789;28;20435;-74
2021/10/21 04:26:52;;;;;;;0.70;0.60;;;;;;;13.98;100.00;-21061.97;4976206;28;20480;-74
2021/10/21 04:29:19;;;;;;;0.70;0.60;;;;;;;13.93;100.00;-21060.47;4977177;28;20437;-75
2021/10/21 04:31:47;;;;;;;0.70;0.60;;;;;;;13.93;100.00;-21060.47;4974871;28;20454;-73
2021/10/21 04:34:14;;;;;;;0.70;0.60;;;;;;;14.01;100.00;-21062.81;4977414;28;20441;-75
2021/10/21 04:36:42;;;;;;;0.70;0.70;;;;;;;13.98;100.00;-21061.84;4975661;28;20501;-77
2021/10/21 04:39:09;;;;;;;0.70;0.60;;;;;;;13.94;100.00;-21060.75;4976584;28;20441;-75
2021/10/21 04:41:36;;;;;;;0.70;0.60;;;;;;;13.89;100.00;-21059.50;4977129;28;20503;-77
2021/10/21 04:44:05;;;;;;;0.70;0.70;;;;;;;13.92;100.00;-21060.31;4975684;28;20526;-76
2021/10/21 04:46:31;;;;;;;0.80;0.70;;;;;;;13.98;100.00;-21061.97;4976476;28;20567;-75
2021/10/21 04:48:58;;;;;;;0.70;0.60;;;;;;;13.94;100.00;-21060.88;4975744;28;20414;-74
2021/10/21 04:51:25;;;;;;;0.70;0.60;;;;;;;13.88;100.00;-21059.22;4975774;28;20489;-76
2021/10/21 04:53:53;;;;;;;0.70;0.60;;;;;;;13.92;100.00;-21060.31;4974458;28;20473;-76
2021/10/21 04:56:20;;;;;;;0.70;0.70;;;;;;;13.98;100.00;-21061.97;4975231;28;20453;-73
2021/10/21 04:58:46;;;;;;;0.70;0.70;;;;;;;14.00;100.00;-21062.53;4974596;28;20463;-71
2021/10/21 05:01:15;;;;;;;0.70;0.60;;;;;;;13.97;100.00;-21061.69;4971894;28;20454;-75
2021/10/21 05:03:42;;;;;;;0.70;0.60;;;;;;;13.93;100.00;-21060.59;4957366;29;20455;-72
2021/10/21 05:06:09;;;;;;;0.70;0.70;;;;;;;13.87;100.00;-21058.81;4955875;29;20491;-72
2021/10/21 05:08:36;;;;;;;0.70;0.70;;;;;;;13.87;100.00;-21058.94;4957135;28;20976;-75
2021/10/21 05:11:06;;;;;;;0.70;0.70;;;;;;;13.90;100.00;-21059.63;4956940;28;20516;-75
2021/10/21 05:13:33;;;;;;;0.70;0.60;;;;;;;13.92;100.00;-21060.31;4971693;28;20870;-74
2021/10/21 05:16:00;;;;;;;0.70;0.70;;;;;;;13.83;100.00;-21057.84;4971093;28;20435;-73
2021/10/21 05:18:28;;;;;;;0.70;0.60;;;;;;;13.93;100.00;-21060.59;4957054;28;20439;-75
2021/10/21 05:20:56;;;;;;;0.70;0.67;;;;;;;13.89;100.00;-21059.50;4971739;28;20452;-77
2021/10/21 05:23:23;;;;;;;0.70;0.70;;;;;;;13.86;100.00;-21058.66;4956199;29;20994;-74
2021/10/21 05:25:50;;;;;;;0.70;0.70;;;;;;;13.84;100.00;-21057.97;4971590;28;21243;-76
2021/10/21 05:28:17;;;;;;;0.70;0.63;;;;;;;13.83;100.00;-21057.72;4955191;28;20803;-74
2021/10/21 05:30:49;;;;;;;0.70;0.60;;;;;;;13.72;100.00;-21054.81;4960050;28;20461;-71
2021/10/21 05:33:16;;;;;;;0.70;0.60;;;;;;;13.82;100.00;-21057.44;4976157;28;20489;-72
2021/10/21 05:35:45;;;;;;;0.70;0.67;;;;;;;13.78;100.00;-21056.47;4975412;28;20500;-74
2021/10/21 05:38:12;;;;;;;0.70;0.70;;;;;;;13.67;100.00;-21053.44;4975796;28;20547;-74
2021/10/21 05:40:39;;;;;;;0.70;0.67;;;;;;;13.65;100.00;-21052.88;4975922;28;20419;-73
2021/10/21 05:43:06;;;;;;;0.70;0.60;;;;;;;13.67;100.00;-21053.56;4958728;28;20437;-76
2021/10/21 05:45:33;;;;;;;0.70;0.60;;;;;;;13.62;100.00;-21052.19;4975512;28;20950;-74
2021/10/21 05:48:01;;;;;;;1.87;1.77;;;;;;;13.62;100.00;-21052.06;4974800;28;20421;-77
2021/10/21 05:50:31;;;;;;;0.70;0.60;;;;;;;13.06;100.00;-21037.03;4989980;28;20442;-73
2021/10/21 05:52:59;;;;;;;0.70;0.70;;;;;;;12.57;100.00;-21023.94;4975008;28;20454;-77
2021/10/21 05:55:26;;;;;;;0.70;0.70;;;;;;;12.37;100.00;-21018.41;4990110;28;20511;-71
2021/10/21 05:57:53;;;;;;;0.70;0.70;;;;;;;12.28;100.00;-21015.91;4974330;28;20502;-73
2021/10/21 06:00:21;;;;;;;0.70;0.60;;;;;;;12.21;100.00;-21014.00;4990246;28;20446;-73
2021/10/21 06:02:50;;;;;;;0.70;0.70;;;;;;;12.00;100.00;-21008.47;4959214;28;20428;-73
2021/10/21 06:05:22;;;;;;;0.80;0.70;;;;;;;11.82;100.00;-21003.50;4974647;28;20897;-75
2021/10/21 06:07:49;;;;;;;0.70;0.60;;;;;;;11.73;100.00;-21001.00;4975439;28;20589;-71
2021/10/21 06:10:18;;;;;;;0.80;0.80;;;;;;;11.69;100.00;-20999.91;4975208;28;20767;-73
2021/10/21 06:12:48;;;;;;;0.70;0.60;;;;;;;11.56;100.00;-20996.59;4974246;28;20497;-73
2021/10/21 06:15:18;;;;;;;0.70;0.60;;;;;;;11.49;100.00;-20994.66;4974823;28;20423;-73
2021/10/21 06:17:48;;;;;;;0.70;0.67;;;;;;;11.39;100.00;-20991.88;4974105;28;20436;-73
2021/10/21 06:20:15;;;;;;;0.70;0.60;;;;;;;11.26;100.00;-20988.44;4973502;28;20447;-75
2021/10/21 06:22:43;;;;;;;0.70;0.60;;;;;;;11.20;100.00;-20986.63;4974468;28;20474;-74
2021/10/21 06:25:12;;;;;;;0.70;0.60;;;;;;;11.12;100.00;-20984.69;4973899;28;20422;-78
2021/10/21 06:27:42;;;;;;;0.70;0.60;;;;;;;11.05;100.00;-20982.75;4975085;28;20455;-72
2021/10/21 06:30:11;;;;;;;0.70;0.70;;;;;;;11.06;100.00;-20982.91;4973555;28;20435;-76
2021/10/21 06:32:38;;;;;;;0.70;0.60;;;;;;;11.03;100.00;-20982.22;4973877;28;20963;-74
2021/10/21 06:35:07;;;;;;;0.70;0.60;;;;;;;11.02;100.00;-20981.94;4974811;28;20844;-74
2021/10/21 06:37:34;;;;;;;0.70;0.70;;;;;;;10.96;100.00;-20980.28;4973580;28;20491;-73
2021/10/21 06:40:01;;;;;;;0.70;0.60;;;;;;;10.88;100.00;-20978.06;4972954;28;20958;-74
2021/10/21 06:42:28;;;;;;;0.70;0.70;;;;;;;10.83;100.00;-20976.81;4961447;28;20453;-71
2021/10/21 06:44:57;;;;;;;0.70;0.60;;;;;;;10.89;100.00;-20978.47;4953737;29;20935;-75
2021/10/21 06:47:23;;;;;;;0.70;0.60;;;;;;;10.85;100.00;-20977.38;4951813;29;21010;-73
2021/10/21 06:49:53;;;;;;;0.70;0.60;;;;;;;10.81;100.00;-20976.13;4954472;28;20423;-73
2021/10/21 06:52:20;;;;;;;0.70;0.60;;;;;;;10.83;100.00;-20976.69;4971360;28;20530;-74
2021/10/21 06:54:47;;;;;;;0.70;0.60;;;;;;;10.84;100.00;-20976.94;4973675;28;20466;-73
2021/10/21 06:57:15;;;;;;;0.70;0.60;;;;;;;10.85;100.00;-20977.22;4974497;28;20457;-75
2021/10/21 06:59:41;;;;;;;0.70;0.70;;;;;;;10.77;100.00;-20975.16;4974596;28;20435;-75
2021/10/21 07:02:10;;;;;;;0.90;0.80;;;;;;;10.79;100.00;-20975.56;4972198;28;20513;-75
2021/10/21 07:04:38;;;;;;;0.70;0.60;;;;;;;10.74;100.00;-20974.31;4974581;28;20505;-73
2021/10/21 07:07:25;;;;;;;1.17;1.07;;;;;;;10.73;100.00;-20973.91;4959373;28;20478;-74
2021/10/21 07:09:53;;;;;;;0.70;0.70;;;;;;;10.74;100.00;-20974.19;4974315;28;20424;-76
2021/10/21 07:12:21;;;;;;;0.70;0.60;;;;;;;10.85;100.00;-20977.22;4973255;28;20432;-75
2021/10/21 07:14:48;;;;;;;0.70;0.60;;;;;;;10.84;100.00;-20976.94;4971834;28;20442;-76
2021/10/21 07:17:17;;;;;;;1.13;1.03;;;;;;;10.81;100.00;-20976.13;4973567;28;20451;-73
2021/10/21 07:19:46;;;;;;;0.70;0.60;;;;;;;10.80;100.00;-20975.97;4974118;28;20753;-75
2021/10/21 07:22:13;;;;;;;0.80;0.70;;;;;;;10.80;100.00;-20975.84;4973254;28;20525;-73
2021/10/21 07:24:40;;;;;;;0.70;0.60;;;;;;;10.75;100.00;-20974.59;4973952;28;20916;-74
2021/10/21 07:27:07;;;;;;;0.70;0.70;;;;;;;10.68;100.00;-20972.53;4974410;28;20497;-75
2021/10/21 07:29:34;;;;;;;0.70;0.60;;;;;;;10.66;100.00;-20971.97;4989015;28;20435;-76
2021/10/21 07:32:01;;;;;;;0.70;0.60;;;;;;;10.61;100.00;-20970.88;4967621;28;20952;-74
2021/10/21 07:34:30;;;;;;;0.70;0.60;;;;;;;10.57;100.00;-20969.75;4974450;28;20908;-73
2021/10/21 07:36:58;;;;;;;0.70;0.60;;;;;;;10.57;100.00;-20969.63;4973897;28;20919;-73
2021/10/21 07:39:30;;;;;;;0.70;0.60;;;;;;;10.54;100.00;-20968.94;4988435;28;20821;-74
2021/10/21 07:42:00;;;;;;;0.70;0.60;;;;;;;10.50;100.00;-20967.81;4957204;28;20473;-75
2021/10/21 07:44:29;;;;;;;0.70;0.60;;;;;;;10.43;100.00;-20965.75;4974177;28;20505;-78
2021/10/21 07:46:56;;;;;;;0.70;0.60;;;;;;;10.26;100.00;-20961.31;4973588;28;20459;-75
2021/10/21 07:49:24;;;;;;;0.80;0.70;;;;;;;10.34;100.00;-20963.41;4973175;28;21007;-76
2021/10/21 07:51:52;;;;;;;0.70;0.60;;;;;;;10.43;100.00;-20965.88;4973626;28;20454;-75
2021/10/21 07:54:23;;;;;;;0.70;0.60;;;;;;;10.53;100.00;-20968.66;4977424;28;20457;-74
2021/10/21 07:56:52;;;;;;;0.70;0.70;;;;;;;10.57;100.00;-20969.75;4977324;28;20418;-75
2021/10/21 07:59:25;;;;;;;0.70;0.60;;;;;;;10.56;100.00;-20969.47;4977633;28;20412;-76
2021/10/21 08:01:53;;;;;;;0.70;0.60;;;;;;;10.72;100.00;-20973.63;4975962;28;20544;-73
2021/10/21 08:04:20;;;;;;;0.70;0.60;;;;;;;10.79;100.00;-20975.56;4978004;28;20450;-74
2021/10/21 08:06:49;;;;;;;0.70;0.60;;;;;;;10.85;100.00;-20977.38;4976234;28;20517;-74
2021/10/21 08:09:18;;;;;;;0.70;0.60;;;;;;;10.94;100.00;-20979.59;4977583;28;20861;-75
2021/10/21 08:11:47;;;;;;;0.70;0.60;;;;;;;11.04;100.00;-20982.34;4977464;28;20433;-75
2021/10/21 08:14:15;;;;;;;0.70;0.60;;;;;;;11.13;100.00;-20984.84;4975753;28;20952;-72
2021/10/21 08:16:43;;;;;;;0.70;0.60;;;;;;;11.26;100.00;-20988.28;4976659;28;20446;-74
2021/10/21 08:19:10;;;;;;;0.70;0.70;;;;;;;11.40;100.00;-20992.16;4977184;28;20911;-75
2021/10/21 08:21:37;;;;;;;0.70;0.60;;;;;;;11.50;100.00;-20994.91;4992572;28;20418;-77
2021/10/21 08:24:06;;;;;;;0.80;0.70;;;;;;;11.69;100.00;-20999.91;4975940;28;20506;-74
2021/10/21 08:26:35;;;;;;;0.70;0.67;;;;;;;11.80;100.00;-21002.94;4976892;28;20481;-78
2021/10/21 08:29:06;;;;;;;0.80;0.80;;;;;;;11.80;100.00;-21003.06;4975665;28;20438;-76
2021/10/21 08:31:34;;;;;;;0.70;0.70;;;;;;;12.06;100.00;-21010.13;4976981;28;20532;-78
2021/10/21 08:34:01;;;;;;;0.80;0.80;;;;;;;12.26;100.00;-21015.50;4976129;28;20440;-75
2021/10/21 08:36:29;;;;;;;0.70;0.60;;;;;;;12.40;100.00;-21019.22;4975790;28;20940;-74
2021/10/21 08:38:57;;;;;;;0.80;0.80;;;;;;;12.63;100.00;-21025.44;4975870;28;20803;-76
2021/10/21 08:41:25;;;;;;;0.70;0.63;;;;;;;12.60;100.00;-21024.63;4975858;28;20460;-75
2021/10/21 08:43:54;;;;;;;0.70;0.60;;;;;;;12.76;100.00;-21028.88;4975315;28;20424;-74
2021/10/21 08:46:23;;;;;;;0.70;0.60;;;;;;;12.67;100.00;-21026.53;4974205;28;20482;-76
2021/10/21 08:48:52;;;;;;;0.70;0.60;;;;;;;12.73;100.00;-21028.06;4972392;28;20640;-76
2021/10/21 08:51:22;;;;;;;0.70;0.70;;;;;;;12.66;100.00;-21026.13;4956211;29;20446;-72
2021/10/21 08:53:49;;;;;;;0.70;0.70;;;;;;;12.41;100.00;-21019.50;4957100;28;20452;-76
2021/10/21 08:56:20;;;;;;;0.70;0.70;;;;;;;12.36;100.00;-21018.00;4957150;28;20425;-75
2021/10/21 08:58:47;;;;;;;0.70;0.60;;;;;;;12.51;100.00;-21022.25;4955950;29;20519;-76
2021/10/21 09:01:19;;;;;;;0.80;0.73;;;;;;;12.73;100.00;-21028.06;4975161;28;20538;-72
2021/10/21 09:04:03;;;;;;;0.80;0.70;;;;;;;13.14;100.00;-21039.09;4958911;28;20795;-73
2021/10/21 09:06:49;;;;;;;0.70;0.70;;;;;;;13.85;100.00;-21058.41;4975424;28;20432;-72
2021/10/21 09:09:19;;;;;;;1.03;0.93;;;;;;;13.90;100.00;-21059.78;4975207;28;20466;-72
2021/10/21 09:11:47;;;;;;;0.70;0.60;;;;;;;14.70;100.00;-21081.25;4975339;28;20431;-72
2021/10/21 09:14:14;;;;;;;0.80;0.70;;;;;;;15.27;100.00;-21096.66;4974652;28;20928;-74
2021/10/21 09:16:57;;;;;;;0.70;0.60;;;;;;;15.52;100.00;-21103.41;4976762;28;20916;-71
2021/10/21 09:19:26;;;;;;;0.70;0.70;;;;;;;16.04;100.00;-21117.28;4991463;28;20415;-74
2021/10/21 09:22:05;;;;;;;0.80;0.73;;;;;;;15.29;100.00;-21097.22;4976951;28;20423;-70
2021/10/21 09:24:34;;;;;;;1.83;0.83;;;;;;;15.27;100.00;-21096.66;4976375;28;20447;-76
2021/10/21 09:27:08;;;;;;;0.70;0.60;;;;;;;16.23;100.00;-21122.50;4976347;28;20536;-72
2021/10/21 09:29:37;;;;;;;0.70;0.70;;;;;;;15.82;100.00;-21111.50;4974699;28;20433;-75
2021/10/21 09:32:09;;;;;;;0.83;0.80;;;;;;;16.58;100.00;-21131.97;4975963;28;20530;-75
2021/10/21 09:34:49;;;;;;;0.70;0.60;;;;;;;16.45;100.00;-21128.28;4975943;28;20402;-77
2021/10/21 09:37:19;;;;;;;0.80;0.70;;;;;;;16.68;100.00;-21134.59;4975505;28;20437;-74
2021/10/21 09:39:49;;;;;;;0.70;0.60;;;;;;;17.31;100.00;-21151.59;4976048;28;20420;-75
2021/10/21 09:42:17;;;;;;;0.70;0.60;;;;;;;16.76;100.00;-21136.66;4974332;28;20465;-75
2021/10/21 09:44:45;;;;;;;0.70;0.60;;;;;;;15.81;100.00;-21111.25;4975762;28;20454;-77
2021/10/21 09:47:21;;;;;;;0.87;0.60;;;;;;;14.71;100.00;-21081.53;4969766;28;20490;-76
2021/10/21 09:49:55;;;;;;;0.70;0.60;;;;;;;14.35;100.00;-21071.88;4974019;28;20505;-74
2021/10/21 09:52:24;;;;;;;0.70;0.60;;;;;;;13.87;100.00;-21058.94;4989825;28;20483;-73
2021/10/21 09:54:52;;;;;;;0.70;0.60;;;;;;;13.67;100.00;-21053.44;4990338;28;20523;-73
2021/10/21 09:57:29;;;;;;;0.70;0.70;;;;;;;13.70;100.00;-21054.41;4975995;28;20412;-76
2021/10/21 10:00:03;;;;;;;0.70;0.70;;;;;;;13.64;100.00;-21052.63;4975386;28;20438;-75
2021/10/21 10:02:39;;;;;;;0.80;0.80;;;;;;;13.74;100.00;-21055.38;4975131;28;20419;-75
2021/10/21 10:05:11;;;;;;;0.70;0.60;;;;;;;13.68;100.00;-21053.72;4975338;28;20456;-75
2021/10/21 10:07:40;;;;;;;0.73;0.70;;;;;;;13.43;100.00;-21046.97;4974117;28;20477;-72
2021/10/21 10:10:08;;;;;;;0.80;0.80;;;;;;;13.43;100.00;-21046.97;4974235;28;20424;-72
2021/10/21 10:12:35;;;;;;;0.77;0.70;;;;;;;13.60;100.00;-21051.50;4973134;28;20793;-73
2021/10/21 10:15:03;;;;;;;0.70;0.70;;;;;;;13.61;100.00;-21051.91;4972932;28;20493;-74
2021/10/21 10:17:30;;;;;;;0.70;0.60;;;;;;;13.35;100.00;-21044.75;4973658;28;20473;-75
2021/10/21 10:19:58;;;;;;;0.70;0.70;;;;;;;13.20;100.00;-21040.75;4973869;28;20496;-74
2021/10/21 10:22:29;;;;;;;0.70;0.70;;;;;;;13.30;100.00;-21043.50;4973979;28;20882;-76
2021/10/21 10:24:57;;;;;;;0.80;0.80;;;;;;;13.29;100.00;-21043.25;4974475;28;20833;-75
2021/10/21 10:27:29;;;;;;;0.80;0.73;;;;;;;13.14;100.00;-21039.09;4973311;28;20455;-73
2021/10/21 10:29:58;;;;;;;0.80;0.73;;;;;;;13.07;100.00;-21037.31;4973758;28;20534;-74
2021/10/21 10:32:47;;;;;;;0.80;0.70;;;;;;;13.05;100.00;-21036.88;4972794;28;20697;-75
2021/10/21 10:35:32;;;;;;;0.80;0.70;;;;;;;12.98;100.00;-21034.97;4973625;28;20451;-73
2021/10/21 10:38:01;;;;;;;0.70;0.60;;;;;;;13.16;100.00;-21039.66;4973867;28;20464;-77
2021/10/21 10:40:56;;;;;;;0.70;0.60;;;;;;;13.31;100.00;-21043.78;4972488;28;20487;-75
2021/10/21 10:43:38;;;;;;;0.70;0.67;;;;;;;13.28;100.00;-21042.97;4970881;28;20477;-76
2021/10/21 10:46:11;;;;;;;0.70;0.70;;;;;;;13.03;100.00;-21036.34;4973582;28;20935;-74
2021/10/21 10:48:53;;;;;;;0.70;0.70;;;;;;;12.73;100.00;-21028.06;4972882;28;20551;-74
2021/10/21 10:51:55;;;;;;;0.80;0.70;;;;;;;12.70;100.00;-21027.22;4973649;28;20904;-74
2021/10/21 10:54:53;;;;;;;1.00;0.90;;;;;;;12.48;100.00;-21021.31;4974669;28;20478;-75
2021/10/21 10:57:51;;;;;;;0.70;0.67;;;;;;;12.31;100.00;-21016.75;4974715;28;20416;-73
2021/10/21 11:00:40;;;;;;;0.80;0.77;;;;;;;12.32;100.00;-21017.16;4988721;28;20455;-75
2021/10/21 11:03:08;;;;;;;0.70;0.60;;;;;;;12.46;100.00;-21020.88;4973045;28;20439;-73
2021/10/21 11:05:52;;;;;;;0.70;0.70;;;;;;;12.79;100.00;-21029.84;4973174;28;20806;-74
2021/10/21 11:08:54;;;;;;;0.80;0.80;;;;;;;13.18;100.00;-21040.34;4974238;28;20475;-74
2021/10/21 11:11:49;;;;;;;0.70;0.70;;;;;;;13.37;100.00;-21045.44;4972768;28;20421;-74
2021/10/21 11:14:18;;;;;;;0.70;0.60;;;;;;;13.54;100.00;-21050.13;4969806;28;20937;-71
2021/10/21 11:16:48;;;;;;;0.70;0.60;;;;;;;13.51;100.00;-21049.16;4953616;29;20812;-72
2021/10/21 11:19:50;;;;;;;0.70;0.70;;;;;;;13.68;100.00;-21053.72;4969559;28;20437;-73
2021/10/21 11:22:38;;;;;;;0.80;0.70;;;;;;;13.77;100.00;-21056.19;4954872;28;20844;-77
2021/10/21 11:25:11;;;;;;;0.70;0.63;;;;;;;13.66;100.00;-21053.16;4955298;28;20416;-74
2021/10/21 11:27:41;;;;;;;0.80;0.73;;;;;;;13.60;100.00;-21051.50;4956804;29;20507;-75
2021/10/21 11:30:11;;;;;;;0.70;0.60;;;;;;;13.64;100.00;-21052.63;4959018;28;20409;-76